sensor_id;sensor_type;location;lat;lon;timestamp;pressure;altitude;pressure_sealevel;temperature;humidity
23321;BME280;33376;51.306;4.752;2023-01-30T00:01:19;102126.97;;;5.98;nan
23321;BME280;33376;51.306;4.752;2023-01-30T00:03:45;102115.59;;;5.96;nan
23321;BME280;33376;51.306;4.752;2023-01-30T00:06:11;102122.53;;;6.03;nan
23321;BME280;33376;51.306;4.752;2023-01-30T00:08:36;102110.13;;;6.08;nan
23321;BME280;33376;51.306;4.752;2023-01-30T00:11:04;102093.38;;;6.14;nan
23321;BME280;33376;51.306;4.752;2023-01-30T00:13:30;102082.69;;;6.21;nan
23321;BME280;33376;51.306;4.752;2023-01-30T00:15:56;102094.13;;;6.22;nan
23321;BME280;33376;51.306;4.752;2023-01-30T00:18:21;102076.66;;;6.15;nan
23321;BME280;33376;51.306;4.752;2023-01-30T00:20:46;102061.75;;;6.15;nan
23321;BME280;33376;51.306;4.752;2023-01-30T00:23:11;102051.97;;;6.23;nan
23321;BME280;33376;51.306;4.752;2023-01-30T00:25:37;59698.91;;;-141.08;100.00
23321;BME280;33376;51.306;4.752;2023-01-30T00:28:02;59698.91;;;-141.08;100.00
23321;BME280;33376;51.306;4.752;2023-01-30T00:30:27;102046.19;;;6.03;nan
23321;BME280;33376;51.306;4.752;2023-01-30T00:32:53;102047.56;;;6.24;nan
23321;BME280;33376;51.306;4.752;2023-01-30T00:35:18;102049.28;;;6.25;nan
23321;BME280;33376;51.306;4.752;2023-01-30T00:37:44;102054.22;;;6.44;nan
23321;BME280;33376;51.306;4.752;2023-01-30T00:40:09;102064.91;;;6.34;nan
23321;BME280;33376;51.306;4.752;2023-01-30T00:42:34;102066.78;;;6.27;nan
23321;BME280;33376;51.306;4.752;2023-01-30T00:45:18;102061.50;;;6.30;nan
23321;BME280;33376;51.306;4.752;2023-01-30T00:48:02;102064.13;;;6.30;nan
23321;BME280;33376;51.306;4.752;2023-01-30T00:50:27;102072.88;;;6.31;nan
23321;BME280;33376;51.306;4.752;2023-01-30T00:53:06;102069.28;;;6.36;nan
23321;BME280;33376;51.306;4.752;2023-01-30T00:55:32;102062.19;;;6.40;nan
23321;BME280;33376;51.306;4.752;2023-01-30T00:57:57;102060.16;;;6.55;nan
23321;BME280;33376;51.306;4.752;2023-01-30T01:00:22;102054.94;;;6.52;nan
23321;BME280;33376;51.306;4.752;2023-01-30T01:02:47;102044.09;;;6.67;nan
23321;BME280;33376;51.306;4.752;2023-01-30T01:05:13;102037.91;;;6.70;nan
23321;BME280;33376;51.306;4.752;2023-01-30T01:07:38;102036.31;;;6.61;nan
23321;BME280;33376;51.306;4.752;2023-01-30T01:10:03;102029.41;;;6.56;nan
23321;BME280;33376;51.306;4.752;2023-01-30T01:12:29;102021.22;;;6.69;nan
23321;BME280;33376;51.306;4.752;2023-01-30T01:14:54;102023.00;;;6.67;nan
23321;BME280;33376;51.306;4.752;2023-01-30T01:17:19;102023.91;;;6.66;nan
23321;BME280;33376;51.306;4.752;2023-01-30T01:19:44;102022.13;;;6.68;nan
23321;BME280;33376;51.306;4.752;2023-01-30T01:22:10;102016.88;;;6.67;nan
23321;BME280;33376;51.306;4.752;2023-01-30T01:24:35;102019.34;;;6.74;nan
23321;BME280;33376;51.306;4.752;2023-01-30T01:27:00;102013.22;;;6.74;nan
23321;BME280;33376;51.306;4.752;2023-01-30T01:29:25;102020.06;;;6.82;nan
23321;BME280;33376;51.306;4.752;2023-01-30T01:31:51;102020.09;;;6.81;nan
23321;BME280;33376;51.306;4.752;2023-01-30T01:34:16;102021.91;;;6.79;nan
23321;BME280;33376;51.306;4.752;2023-01-30T01:36:41;102021.00;;;6.78;nan
23321;BME280;33376;51.306;4.752;2023-01-30T01:39:06;102017.50;;;6.79;nan
23321;BME280;33376;51.306;4.752;2023-01-30T01:41:31;102013.06;;;6.80;nan
23321;BME280;33376;51.306;4.752;2023-01-30T01:44:01;102007.56;;;6.92;nan
23321;BME280;33376;51.306;4.752;2023-01-30T01:46:49;102003.09;;;6.95;nan
23321;BME280;33376;51.306;4.752;2023-01-30T01:49:22;102008.16;;;7.04;nan
23321;BME280;33376;51.306;4.752;2023-01-30T01:56:51;101972.31;;;6.96;nan
23321;BME280;33376;51.306;4.752;2023-01-30T01:59:39;101968.88;;;6.94;nan
23321;BME280;33376;51.306;4.752;2023-01-30T02:02:05;101960.81;;;7.00;nan
23321;BME280;33376;51.306;4.752;2023-01-30T02:04:32;101959.19;;;6.93;nan
23321;BME280;33376;51.306;4.752;2023-01-30T02:07:17;101952.16;;;6.93;nan
23321;BME280;33376;51.306;4.752;2023-01-30T02:09:43;101945.69;;;7.08;nan
23321;BME280;33376;51.306;4.752;2023-01-30T02:12:08;101938.88;;;6.98;nan
23321;BME280;33376;51.306;4.752;2023-01-30T02:14:35;101922.78;;;7.08;nan
23321;BME280;33376;51.306;4.752;2023-01-30T02:17:01;101925.69;;;6.98;nan
23321;BME280;33376;51.306;4.752;2023-01-30T02:19:40;101934.47;;;6.98;nan
23321;BME280;33376;51.306;4.752;2023-01-30T02:27:03;101925.63;;;7.01;nan
23321;BME280;33376;51.306;4.752;2023-01-30T02:34:58;101918.81;;;6.91;nan
23321;BME280;33376;51.306;4.752;2023-01-30T02:40:17;101921.19;;;7.03;nan
23321;BME280;33376;51.306;4.752;2023-01-30T02:48:12;101920.81;;;7.19;nan
23321;BME280;33376;51.306;4.752;2023-01-30T02:50:42;101910.22;;;7.21;nan
23321;BME280;33376;51.306;4.752;2023-01-30T02:53:09;101915.75;;;7.09;nan
23321;BME280;33376;51.306;4.752;2023-01-30T02:55:38;101899.91;;;7.10;nan
23321;BME280;33376;51.306;4.752;2023-01-30T02:58:04;101909.56;;;7.11;nan
23321;BME280;33376;51.306;4.752;2023-01-30T03:03:02;101901.66;;;7.11;nan
23321;BME280;33376;51.306;4.752;2023-01-30T03:05:42;101906.63;;;7.23;nan
23321;BME280;33376;51.306;4.752;2023-01-30T03:16:02;101901.38;;;7.22;nan
23321;BME280;33376;51.306;4.752;2023-01-30T03:18:29;101896.88;;;7.27;nan
23321;BME280;33376;51.306;4.752;2023-01-30T03:20:54;101895.19;;;7.23;nan
23321;BME280;33376;51.306;4.752;2023-01-30T03:23:19;101891.69;;;7.24;nan
23321;BME280;33376;51.306;4.752;2023-01-30T03:25:45;101877.94;;;7.11;nan
23321;BME280;33376;51.306;4.752;2023-01-30T03:28:11;101873.38;;;7.16;nan
23321;BME280;33376;51.306;4.752;2023-01-30T03:30:38;101869.16;;;7.09;nan
23321;BME280;33376;51.306;4.752;2023-01-30T03:33:03;101879.56;;;7.15;nan
23321;BME280;33376;51.306;4.752;2023-01-30T03:35:29;101883.91;;;7.18;nan
23321;BME280;33376;51.306;4.752;2023-01-30T03:37:54;101884.03;;;7.12;nan
23321;BME280;33376;51.306;4.752;2023-01-30T03:40:19;101873.53;;;7.10;nan
23321;BME280;33376;51.306;4.752;2023-01-30T03:42:45;101871.81;;;7.09;nan
23321;BME280;33376;51.306;4.752;2023-01-30T03:45:10;101870.91;;;7.10;nan
23321;BME280;33376;51.306;4.752;2023-01-30T03:47:36;101864.66;;;7.14;nan
23321;BME280;33376;51.306;4.752;2023-01-30T03:50:01;101869.03;;;7.15;nan
23321;BME280;33376;51.306;4.752;2023-01-30T03:52:26;101861.91;;;7.19;nan
23321;BME280;33376;51.306;4.752;2023-01-30T03:54:51;101866.56;;;7.08;nan
23321;BME280;33376;51.306;4.752;2023-01-30T03:57:17;101861.06;;;7.17;nan
23321;BME280;33376;51.306;4.752;2023-01-30T03:59:42;101864.41;;;7.23;nan
23321;BME280;33376;51.306;4.752;2023-01-30T04:02:07;101847.03;;;7.15;nan
23321;BME280;33376;51.306;4.752;2023-01-30T04:04:33;101848.41;;;7.31;nan
23321;BME280;33376;51.306;4.752;2023-01-30T04:06:58;101849.59;;;7.19;nan
23321;BME280;33376;51.306;4.752;2023-01-30T04:09:23;101837.34;;;7.17;nan
23321;BME280;33376;51.306;4.752;2023-01-30T04:11:48;101849.47;;;7.24;nan
23321;BME280;33376;51.306;4.752;2023-01-30T04:14:14;101837.22;;;7.21;nan
23321;BME280;33376;51.306;4.752;2023-01-30T04:16:39;101833.81;;;7.16;nan
23321;BME280;33376;51.306;4.752;2023-01-30T04:19:04;101835.38;;;7.25;nan
23321;BME280;33376;51.306;4.752;2023-01-30T04:21:29;101830.06;;;7.26;nan
23321;BME280;33376;51.306;4.752;2023-01-30T04:23:55;101835.00;;;7.40;nan
23321;BME280;33376;51.306;4.752;2023-01-30T04:26:20;101834.28;;;7.33;nan
23321;BME280;33376;51.306;4.752;2023-01-30T04:28:45;101834.31;;;7.32;nan
23321;BME280;33376;51.306;4.752;2023-01-30T04:31:10;101832.53;;;7.32;nan
23321;BME280;33376;51.306;4.752;2023-01-30T04:33:36;101816.44;;;7.43;nan
23321;BME280;33376;51.306;4.752;2023-01-30T04:36:03;101813.06;;;7.38;nan
23321;BME280;33376;51.306;4.752;2023-01-30T04:38:36;101808.47;;;7.44;nan
23321;BME280;33376;51.306;4.752;2023-01-30T04:41:05;101822.50;;;7.47;nan
23321;BME280;33376;51.306;4.752;2023-01-30T04:43:34;101810.34;;;7.41;nan
23321;BME280;33376;51.306;4.752;2023-01-30T04:46:01;101796.44;;;7.67;nan
23321;BME280;33376;51.306;4.752;2023-01-30T04:48:27;101787.78;;;7.62;nan
23321;BME280;33376;51.306;4.752;2023-01-30T04:50:53;101806.44;;;7.56;nan
23321;BME280;33376;51.306;4.752;2023-01-30T04:53:21;101793.22;;;7.56;nan
23321;BME280;33376;51.306;4.752;2023-01-30T04:55:47;101800.13;;;7.60;nan
23321;BME280;33376;51.306;4.752;2023-01-30T04:58:13;101808.09;;;7.58;nan
23321;BME280;33376;51.306;4.752;2023-01-30T05:00:38;101811.06;;;7.78;nan
23321;BME280;33376;51.306;4.752;2023-01-30T05:03:03;101828.91;;;7.70;nan
23321;BME280;33376;51.306;4.752;2023-01-30T05:05:30;101828.81;;;7.73;nan
23321;BME280;33376;51.306;4.752;2023-01-30T05:07:55;101822.78;;;7.68;nan
23321;BME280;33376;51.306;4.752;2023-01-30T05:10:21;101812.78;;;7.79;nan
23321;BME280;33376;51.306;4.752;2023-01-30T05:12:46;101818.25;;;7.73;nan
23321;BME280;33376;51.306;4.752;2023-01-30T05:15:12;101816.53;;;7.72;nan
23321;BME280;33376;51.306;4.752;2023-01-30T05:17:37;101827.66;;;7.83;nan
23321;BME280;33376;51.306;4.752;2023-01-30T05:20:03;101844.44;;;7.81;nan
23321;BME280;33376;51.306;4.752;2023-01-30T05:22:28;101843.59;;;7.79;nan
23321;BME280;33376;51.306;4.752;2023-01-30T05:24:54;101835.59;;;7.83;nan
23321;BME280;33376;51.306;4.752;2023-01-30T05:27:19;101838.88;;;7.91;nan
23321;BME280;33376;51.306;4.752;2023-01-30T05:29:44;101821.31;;;7.89;nan
23321;BME280;33376;51.306;4.752;2023-01-30T05:32:11;101826.50;;;7.92;nan
23321;BME280;33376;51.306;4.752;2023-01-30T05:34:36;101810.63;;;7.93;nan
23321;BME280;33376;51.306;4.752;2023-01-30T05:37:02;101815.75;;;7.99;nan
23321;BME280;33376;51.306;4.752;2023-01-30T05:39:27;101817.63;;;7.96;nan
23321;BME280;33376;51.306;4.752;2023-01-30T05:41:52;101821.00;;;8.01;nan
23321;BME280;33376;51.306;4.752;2023-01-30T05:44:17;101833.25;;;8.03;nan
23321;BME280;33376;51.306;4.752;2023-01-30T05:46:43;101834.31;;;7.96;nan
23321;BME280;33376;51.306;4.752;2023-01-30T05:49:08;101830.50;;;8.06;nan
23321;BME280;33376;51.306;4.752;2023-01-30T05:51:33;101832.31;;;8.04;nan
23321;BME280;33376;51.306;4.752;2023-01-30T05:53:58;101821.03;;;7.99;nan
23321;BME280;33376;51.306;4.752;2023-01-30T05:56:24;101827.91;;;8.05;nan
23321;BME280;33376;51.306;4.752;2023-01-30T05:58:50;101840.72;;;8.18;nan
23321;BME280;33376;51.306;4.752;2023-01-30T06:01:15;101834.56;;;8.18;nan
23321;BME280;33376;51.306;4.752;2023-01-30T06:03:41;101838.13;;;8.17;nan
23321;BME280;33376;51.306;4.752;2023-01-30T06:06:06;101836.28;;;8.19;nan
23321;BME280;33376;51.306;4.752;2023-01-30T06:08:31;101846.03;;;8.18;nan
23321;BME280;33376;51.306;4.752;2023-01-30T06:11:04;101845.22;;;8.15;nan
23321;BME280;33376;51.306;4.752;2023-01-30T06:13:30;101841.94;;;8.07;nan
23321;BME280;33376;51.306;4.752;2023-01-30T06:15:55;101833.94;;;8.10;nan
23321;BME280;33376;51.306;4.752;2023-01-30T06:18:21;101829.63;;;8.07;nan
23321;BME280;33376;51.306;4.752;2023-01-30T06:20:46;101812.25;;;7.99;nan
23321;BME280;33376;51.306;4.752;2023-01-30T06:23:13;101823.03;;;7.91;nan
23321;BME280;33376;51.306;4.752;2023-01-30T06:25:38;101818.06;;;7.79;nan
23321;BME280;33376;51.306;4.752;2023-01-30T06:28:06;101807.78;;;7.70;nan
23321;BME280;33376;51.306;4.752;2023-01-30T06:30:31;101815.88;;;7.64;nan
23321;BME280;33376;51.306;4.752;2023-01-30T06:32:57;101816.47;;;7.41;nan
23321;BME280;33376;51.306;4.752;2023-01-30T06:35:22;101814.66;;;7.43;nan
23321;BME280;33376;51.306;4.752;2023-01-30T06:37:47;101814.94;;;7.33;nan
23321;BME280;33376;51.306;4.752;2023-01-30T06:40:12;101818.03;;;7.15;nan
23321;BME280;33376;51.306;4.752;2023-01-30T06:42:38;101817.91;;;6.86;nan
23321;BME280;33376;51.306;4.752;2023-01-30T06:45:03;101827.72;;;6.79;nan
23321;BME280;33376;51.306;4.752;2023-01-30T06:47:28;101811.53;;;6.58;nan
23321;BME280;33376;51.306;4.752;2023-01-30T06:49:54;101808.03;;;6.57;nan
23321;BME280;33376;51.306;4.752;2023-01-30T06:52:19;101827.50;;;6.50;nan
23321;BME280;33376;51.306;4.752;2023-01-30T06:54:44;101831.78;;;6.56;nan
23321;BME280;33376;51.306;4.752;2023-01-30T06:57:09;101842.69;;;6.39;nan
23321;BME280;33376;51.306;4.752;2023-01-30T06:59:36;101851.44;;;6.41;nan
23321;BME280;33376;51.306;4.752;2023-01-30T07:02:01;101852.44;;;6.34;nan
23321;BME280;33376;51.306;4.752;2023-01-30T07:04:26;101845.56;;;6.27;nan
23321;BME280;33376;51.306;4.752;2023-01-30T07:06:52;101854.28;;;6.31;nan
23321;BME280;33376;51.306;4.752;2023-01-30T07:09:17;101869.91;;;6.40;nan
23321;BME280;33376;51.306;4.752;2023-01-30T07:11:42;101876.16;;;6.34;nan
23321;BME280;33376;51.306;4.752;2023-01-30T07:14:08;101873.19;;;6.51;nan
23321;BME280;33376;51.306;4.752;2023-01-30T07:16:33;101870.66;;;6.45;nan
23321;BME280;33376;51.306;4.752;2023-01-30T07:18:58;101871.56;;;6.44;nan
23321;BME280;33376;51.306;4.752;2023-01-30T07:21:24;101880.41;;;6.41;nan
23321;BME280;33376;51.306;4.752;2023-01-30T07:23:49;101887.75;;;6.26;nan
23321;BME280;33376;51.306;4.752;2023-01-30T07:26:14;101884.13;;;6.31;nan
23321;BME280;33376;51.306;4.752;2023-01-30T07:28:39;101885.03;;;6.30;nan
23321;BME280;33376;51.306;4.752;2023-01-30T07:31:05;101900.97;;;6.23;nan
23321;BME280;33376;51.306;4.752;2023-01-30T07:33:30;101905.41;;;6.22;nan
23321;BME280;33376;51.306;4.752;2023-01-30T07:35:55;101912.34;;;6.25;nan
23321;BME280;33376;51.306;4.752;2023-01-30T07:38:20;101914.06;;;6.26;nan
23321;BME280;33376;51.306;4.752;2023-01-30T07:40:46;101926.44;;;6.24;nan
23321;BME280;33376;51.306;4.752;2023-01-30T07:43:11;101924.59;;;6.26;nan
23321;BME280;33376;51.306;4.752;2023-01-30T07:45:41;101921.00;;;6.31;nan
23321;BME280;33376;51.306;4.752;2023-01-30T07:48:07;101920.22;;;6.26;nan
23321;BME280;33376;51.306;4.752;2023-01-30T07:50:32;101918.50;;;6.25;nan
23321;BME280;33376;51.306;4.752;2023-01-30T07:52:58;101932.44;;;6.29;nan
23321;BME280;33376;51.306;4.752;2023-01-30T07:55:23;101936.84;;;6.30;nan
23321;BME280;33376;51.306;4.752;2023-01-30T07:57:48;101936.00;;;6.28;nan
23321;BME280;33376;51.306;4.752;2023-01-30T08:00:14;101939.53;;;6.27;nan
23321;BME280;33376;51.306;4.752;2023-01-30T08:02:39;101944.66;;;6.33;nan
23321;BME280;33376;51.306;4.752;2023-01-30T08:05:04;101939.56;;;6.25;nan
23321;BME280;33376;51.306;4.752;2023-01-30T08:07:30;101937.72;;;6.30;nan
23321;BME280;33376;51.306;4.752;2023-01-30T08:09:55;101940.09;;;6.42;nan
23321;BME280;33376;51.306;4.752;2023-01-30T08:12:20;101945.38;;;6.41;nan
23321;BME280;33376;51.306;4.752;2023-01-30T08:14:46;101949.84;;;6.37;nan
23321;BME280;33376;51.306;4.752;2023-01-30T08:17:11;101955.06;;;6.39;nan
23321;BME280;33376;51.306;4.752;2023-01-30T08:19:36;101965.63;;;6.39;nan
23321;BME280;33376;51.306;4.752;2023-01-30T08:22:01;101969.72;;;6.53;nan
23321;BME280;33376;51.306;4.752;2023-01-30T08:24:27;101988.13;;;6.55;nan
23321;BME280;33376;51.306;4.752;2023-01-30T08:26:52;101987.13;;;6.62;nan
23321;BME280;33376;51.306;4.752;2023-01-30T08:29:17;101998.63;;;6.56;nan
23321;BME280;33376;51.306;4.752;2023-01-30T08:31:42;102007.03;;;6.76;nan
23321;BME280;33376;51.306;4.752;2023-01-30T08:34:08;102005.22;;;6.77;nan
23321;BME280;33376;51.306;4.752;2023-01-30T08:36:33;102019.91;;;6.90;nan
23321;BME280;33376;51.306;4.752;2023-01-30T08:38:58;102012.09;;;6.85;nan
23321;BME280;33376;51.306;4.752;2023-01-30T08:41:23;102014.50;;;6.96;nan
23321;BME280;33376;51.306;4.752;2023-01-30T08:43:51;102030.22;;;7.02;nan
23321;BME280;33376;51.306;4.752;2023-01-30T08:46:16;102033.75;;;6.99;nan
23321;BME280;33376;51.306;4.752;2023-01-30T08:48:41;102034.47;;;7.07;nan
23321;BME280;33376;51.306;4.752;2023-01-30T08:51:08;102056.44;;;7.08;nan
23321;BME280;33376;51.306;4.752;2023-01-30T08:53:34;102076.41;;;7.19;nan
23321;BME280;33376;51.306;4.752;2023-01-30T08:55:59;102077.34;;;7.17;nan
23321;BME280;33376;51.306;4.752;2023-01-30T08:58:24;102088.81;;;7.16;nan
23321;BME280;33376;51.306;4.752;2023-01-30T09:00:49;102091.22;;;7.25;nan
23321;BME280;33376;51.306;4.752;2023-01-30T09:03:15;102100.88;;;7.26;nan
23321;BME280;33376;51.306;4.752;2023-01-30T09:05:41;102106.09;;;7.30;nan
23321;BME280;33376;51.306;4.752;2023-01-30T09:08:07;102123.47;;;7.39;nan
23321;BME280;33376;51.306;4.752;2023-01-30T09:10:32;102152.44;;;7.40;nan
23321;BME280;33376;51.306;4.752;2023-01-30T09:12:57;102159.53;;;7.40;nan
23321;BME280;33376;51.306;4.752;2023-01-30T09:15:22;102172.47;;;7.51;nan
23321;BME280;33376;51.306;4.752;2023-01-30T09:17:48;102182.88;;;7.58;nan
23321;BME280;33376;51.306;4.752;2023-01-30T09:20:13;102187.41;;;7.53;nan
23321;BME280;33376;51.306;4.752;2023-01-30T09:22:38;102197.03;;;7.54;nan
23321;BME280;33376;51.306;4.752;2023-01-30T09:25:04;102219.91;;;7.54;nan
23321;BME280;33376;51.306;4.752;2023-01-30T09:27:30;102236.53;;;7.59;nan
23321;BME280;33376;51.306;4.752;2023-01-30T09:29:55;102233.78;;;7.63;nan
23321;BME280;33376;51.306;4.752;2023-01-30T09:32:20;102229.47;;;7.61;nan
23321;BME280;33376;51.306;4.752;2023-01-30T09:34:46;102237.34;;;7.62;nan
23321;BME280;33376;51.306;4.752;2023-01-30T09:37:11;102231.16;;;7.63;nan
23321;BME280;33376;51.306;4.752;2023-01-30T09:39:36;102247.69;;;7.73;nan
23321;BME280;33376;51.306;4.752;2023-01-30T09:47:13;102249.19;;;7.84;nan
23321;BME280;33376;51.306;4.752;2023-01-30T09:52:15;102271.31;;;7.79;nan
23321;BME280;33376;51.306;4.752;2023-01-30T09:54:43;102292.28;;;7.86;nan
23321;BME280;33376;51.306;4.752;2023-01-30T09:59:41;102290.13;;;8.05;nan
23321;BME280;33376;51.306;4.752;2023-01-30T10:02:21;102298.16;;;8.00;nan
23321;BME280;33376;51.306;4.752;2023-01-30T10:04:48;102308.66;;;8.03;nan
23321;BME280;33376;51.306;4.752;2023-01-30T10:07:23;102321.06;;;7.98;nan
23321;BME280;33376;51.306;4.752;2023-01-30T10:10:07;102323.53;;;8.09;nan
23321;BME280;33376;51.306;4.752;2023-01-30T10:12:45;102338.41;;;8.11;nan
23321;BME280;33376;51.306;4.752;2023-01-30T10:15:37;102346.28;;;8.14;nan
23321;BME280;33376;51.306;4.752;2023-01-30T10:21:01;102329.16;;;8.33;nan
23321;BME280;33376;51.306;4.752;2023-01-30T10:23:39;102348.66;;;8.29;nan
23321;BME280;33376;51.306;4.752;2023-01-30T10:26:12;102355.84;;;8.21;nan
23321;BME280;33376;51.306;4.752;2023-01-30T10:28:42;102354.81;;;8.28;nan
23321;BME280;33376;51.306;4.752;2023-01-30T10:31:14;102359.38;;;8.19;nan
23321;BME280;33376;51.306;4.752;2023-01-30T10:36:13;102361.78;;;8.32;nan
23321;BME280;33376;51.306;4.752;2023-01-30T10:38:43;102366.72;;;8.47;nan
23321;BME280;33376;51.306;4.752;2023-01-30T10:41:12;102361.34;;;8.53;nan
23321;BME280;33376;51.306;4.752;2023-01-30T10:46:35;102345.03;;;8.71;nan
23321;BME280;33376;51.306;4.752;2023-01-30T10:49:05;102352.50;;;8.91;nan
23321;BME280;33376;51.306;4.752;2023-01-30T10:51:41;102345.38;;;8.95;nan
23321;BME280;33376;51.306;4.752;2023-01-30T10:59:20;102336.25;;;9.08;nan
23321;BME280;33376;51.306;4.752;2023-01-30T11:01:50;102347.44;;;9.19;nan
23321;BME280;33376;51.306;4.752;2023-01-30T11:06:51;102333.97;;;8.93;nan
23321;BME280;33376;51.306;4.752;2023-01-30T11:09:17;102353.16;;;9.01;nan
23321;BME280;33376;51.306;4.752;2023-01-30T11:11:50;102343.41;;;9.03;nan
23321;BME280;33376;51.306;4.752;2023-01-30T11:14:16;102353.34;;;8.93;nan
23321;BME280;33376;51.306;4.752;2023-01-30T11:16:46;102352.47;;;8.93;nan
23321;BME280;33376;51.306;4.752;2023-01-30T11:19:12;102352.19;;;9.05;nan
23321;BME280;33376;51.306;4.752;2023-01-30T11:21:37;102352.25;;;9.02;nan
23321;BME280;33376;51.306;4.752;2023-01-30T11:24:20;102339.16;;;8.96;nan
23321;BME280;33376;51.306;4.752;2023-01-30T11:26:46;102347.59;;;9.11;nan
23321;BME280;33376;51.306;4.752;2023-01-30T11:29:26;102342.66;;;8.98;nan
23321;BME280;33376;51.306;4.752;2023-01-30T11:31:53;102347.19;;;8.93;nan
23321;BME280;33376;51.306;4.752;2023-01-30T11:34:19;102347.91;;;8.99;nan
23321;BME280;33376;51.306;4.752;2023-01-30T11:36:44;102342.78;;;8.93;nan
23321;BME280;33376;51.306;4.752;2023-01-30T11:41:55;102362.13;;;8.93;nan
23321;BME280;33376;51.306;4.752;2023-01-30T11:44:34;102357.22;;;8.78;nan
23321;BME280;33376;51.306;4.752;2023-01-30T11:47:03;102360.97;;;8.68;nan
23321;BME280;33376;51.306;4.752;2023-01-30T11:49:42;102370.66;;;8.68;nan
23321;BME280;33376;51.306;4.752;2023-01-30T11:52:10;102376.97;;;8.62;nan
23321;BME280;33376;51.306;4.752;2023-01-30T11:54:40;102388.25;;;8.70;nan
23321;BME280;33376;51.306;4.752;2023-01-30T11:57:15;102386.19;;;8.83;nan
23321;BME280;33376;51.306;4.752;2023-01-30T11:59:45;102403.00;;;8.82;nan
23321;BME280;33376;51.306;4.752;2023-01-30T12:04:50;102396.75;;;8.84;nan
23321;BME280;33376;51.306;4.752;2023-01-30T12:07:31;102394.03;;;8.87;nan
23321;BME280;33376;51.306;4.752;2023-01-30T12:09:56;102390.72;;;8.78;nan
23321;BME280;33376;51.306;4.752;2023-01-30T12:15:16;102393.94;;;8.90;nan
23321;BME280;33376;51.306;4.752;2023-01-30T12:22:58;102406.16;;;8.98;nan
23321;BME280;33376;51.306;4.752;2023-01-30T12:25:26;102395.06;;;9.19;nan
23321;BME280;33376;51.306;4.752;2023-01-30T12:28:04;102393.31;;;9.18;nan
23321;BME280;33376;51.306;4.752;2023-01-30T12:30:41;102389.69;;;9.22;nan
23321;BME280;33376;51.306;4.752;2023-01-30T12:33:09;102383.56;;;9.20;nan
23321;BME280;33376;51.306;4.752;2023-01-30T12:40:55;102376.81;;;9.42;nan
23321;BME280;33376;51.306;4.752;2023-01-30T12:43:25;102376.19;;;9.32;nan
23321;BME280;33376;51.306;4.752;2023-01-30T12:56:51;102370.25;;;9.56;nan
23321;BME280;33376;51.306;4.752;2023-01-30T13:04:42;102356.81;;;9.32;nan
23321;BME280;33376;51.306;4.752;2023-01-30T13:07:21;102349.84;;;9.28;nan
23321;BME280;33376;51.306;4.752;2023-01-30T13:09:51;102340.09;;;9.30;nan
23321;BME280;33376;51.306;4.752;2023-01-30T13:12:31;102348.56;;;9.42;nan
23321;BME280;33376;51.306;4.752;2023-01-30T13:15:01;102339.53;;;9.51;nan
23321;BME280;33376;51.306;4.752;2023-01-30T13:17:33;102334.25;;;9.51;nan
23321;BME280;33376;51.306;4.752;2023-01-30T13:27:54;102316.16;;;9.66;nan
23321;BME280;33376;51.306;4.752;2023-01-30T13:30:21;102333.81;;;9.66;nan
23321;BME280;33376;51.306;4.752;2023-01-30T13:32:50;102312.69;;;9.31;nan
23321;BME280;33376;51.306;4.752;2023-01-30T13:37:43;102321.22;;;9.42;nan
23321;BME280;33376;51.306;4.752;2023-01-30T13:40:12;102326.47;;;9.43;nan
23321;BME280;33376;51.306;4.752;2023-01-30T13:42:53;102341.09;;;9.58;nan
23321;BME280;33376;51.306;4.752;2023-01-30T13:45:31;102355.78;;;9.69;nan
23321;BME280;33376;51.306;4.752;2023-01-30T13:48:19;102339.84;;;9.39;nan
23321;BME280;33376;51.306;4.752;2023-01-30T13:53:20;102359.50;;;9.30;nan
23321;BME280;33376;51.306;4.752;2023-01-30T13:55:54;102361.06;;;9.02;nan
23321;BME280;33376;51.306;4.752;2023-01-30T13:58:36;102372.38;;;9.09;nan
23321;BME280;33376;51.306;4.752;2023-01-30T14:01:08;102390.19;;;9.01;nan
23321;BME280;33376;51.306;4.752;2023-01-30T14:03:33;102397.97;;;9.07;nan
23321;BME280;33376;51.306;4.752;2023-01-30T14:06:00;102395.88;;;8.84;nan
23321;BME280;33376;51.306;4.752;2023-01-30T14:08:59;102401.00;;;8.92;nan
23321;BME280;33376;51.306;4.752;2023-01-30T14:11:32;102417.53;;;9.01;nan
23321;BME280;33376;51.306;4.752;2023-01-30T14:14:05;102426.28;;;9.03;nan
23321;BME280;33376;51.306;4.752;2023-01-30T14:16:45;102413.94;;;9.04;nan
23321;BME280;33376;51.306;4.752;2023-01-30T14:21:55;102421.91;;;8.64;nan
23321;BME280;33376;51.306;4.752;2023-01-30T14:24:21;102418.44;;;8.60;nan
23321;BME280;33376;51.306;4.752;2023-01-30T14:31:59;102427.16;;;9.04;nan
23321;BME280;33376;51.306;4.752;2023-01-30T14:34:36;102431.00;;;8.90;nan
23321;BME280;33376;51.306;4.752;2023-01-30T14:37:02;102440.03;;;8.82;nan
23321;BME280;33376;51.306;4.752;2023-01-30T14:39:37;102435.13;;;8.64;nan
23321;BME280;33376;51.306;4.752;2023-01-30T14:45:04;102452.63;;;8.27;nan
23321;BME280;33376;51.306;4.752;2023-01-30T14:47:37;102459.50;;;8.35;nan
23321;BME280;33376;51.306;4.752;2023-01-30T14:50:02;102479.94;;;8.27;nan
23321;BME280;33376;51.306;4.752;2023-01-30T14:52:40;102485.00;;;8.38;nan
23321;BME280;33376;51.306;4.752;2023-01-30T14:55:14;102493.81;;;8.38;nan
23321;BME280;33376;51.306;4.752;2023-01-30T14:57:45;102505.06;;;8.48;nan
23321;BME280;33376;51.306;4.752;2023-01-30T15:00:14;102492.34;;;8.21;nan
23321;BME280;33376;51.306;4.752;2023-01-30T15:02:42;102466.81;;;8.23;nan
23321;BME280;33376;51.306;4.752;2023-01-30T15:05:16;102453.81;;;8.09;nan
23321;BME280;33376;51.306;4.752;2023-01-30T15:07:50;102461.72;;;8.09;nan
23321;BME280;33376;51.306;4.752;2023-01-30T15:25:37;102549.47;;;7.76;nan
23321;BME280;33376;51.306;4.752;2023-01-30T15:33:10;102577.59;;;7.79;nan
23321;BME280;33376;51.306;4.752;2023-01-30T15:35:37;102576.69;;;7.81;nan
23321;BME280;33376;51.306;4.752;2023-01-30T15:38:02;102594.47;;;7.70;nan
23321;BME280;33376;51.306;4.752;2023-01-30T15:40:28;102594.47;;;7.70;nan
23321;BME280;33376;51.306;4.752;2023-01-30T15:45:34;102607.81;;;7.58;nan
23321;BME280;33376;51.306;4.752;2023-01-30T15:50:30;102623.81;;;7.49;nan